sensor_id;sensor_type;location;lat;lon;timestamp;P1;durP1;ratioP1;P2;durP2;ratioP2
55346;SDS011;41218;55.700;38.270;2023-04-05T00:02:12;18.87;;;9.33;;
55346;SDS011;41218;55.700;38.270;2023-04-05T00:07:13;19.70;;;8.87;;
55346;SDS011;41218;55.700;38.270;2023-04-05T00:12:13;18.47;;;8.53;;
55346;SDS011;41218;55.700;38.270;2023-04-05T00:17:14;18.65;;;8.68;;
55346;SDS011;41218;55.700;38.270;2023-04-05T00:22:15;17.90;;;8.50;;
55346;SDS011;41218;55.700;38.270;2023-04-05T00:27:19;17.85;;;8.63;;
55346;SDS011;41218;55.700;38.270;2023-04-05T00:32:19;19.07;;;8.87;;
55346;SDS011;41218;55.700;38.270;2023-04-05T00:37:20;16.52;;;8.35;;
55346;SDS011;41218;55.700;38.270;2023-04-05T00:42:21;18.77;;;9.37;;
55346;SDS011;41218;55.700;38.270;2023-04-05T00:47:22;16.25;;;8.15;;
55346;SDS011;41218;55.700;38.270;2023-04-05T00:52:22;17.57;;;8.67;;
55346;SDS011;41218;55.700;38.270;2023-04-05T00:57:23;16.37;;;8.63;;
55346;SDS011;41218;55.700;38.270;2023-04-05T01:02:32;18.65;;;8.95;;
55346;SDS011;41218;55.700;38.270;2023-04-05T01:13:11;17.25;;;8.57;;
55346;SDS011;41218;55.700;38.270;2023-04-05T01:18:12;18.43;;;8.37;;
55346;SDS011;41218;55.700;38.270;2023-04-05T01:23:28;17.08;;;8.38;;
55346;SDS011;41218;55.700;38.270;2023-04-05T01:39:43;21.25;;;8.45;;
55346;SDS011;41218;55.700;38.270;2023-04-05T01:44:46;18.55;;;8.50;;
55346;SDS011;41218;55.700;38.270;2023-04-05T01:49:47;19.67;;;8.70;;
55346;SDS011;41218;55.700;38.270;2023-04-05T01:54:47;17.03;;;8.60;;
55346;SDS011;41218;55.700;38.270;2023-04-05T01:59:48;15.80;;;8.50;;
55346;SDS011;41218;55.700;38.270;2023-04-05T02:04:48;16.33;;;8.10;;
55346;SDS011;41218;55.700;38.270;2023-04-05T02:09:49;18.20;;;8.27;;
55346;SDS011;41218;55.700;38.270;2023-04-05T02:14:49;17.77;;;8.97;;
55346;SDS011;41218;55.700;38.270;2023-04-05T02:19:51;16.00;;;8.27;;
55346;SDS011;41218;55.700;38.270;2023-04-05T02:24:52;15.97;;;8.53;;
55346;SDS011;41218;55.700;38.270;2023-04-05T02:29:52;18.40;;;7.60;;
55346;SDS011;41218;55.700;38.270;2023-04-05T02:34:54;18.83;;;8.20;;
55346;SDS011;41218;55.700;38.270;2023-04-05T02:39:55;17.00;;;7.47;;
55346;SDS011;41218;55.700;38.270;2023-04-05T02:44:55;15.30;;;8.03;;
55346;SDS011;41218;55.700;38.270;2023-04-05T02:49:56;17.20;;;8.23;;
55346;SDS011;41218;55.700;38.270;2023-04-05T02:54:56;16.63;;;8.17;;
55346;SDS011;41218;55.700;38.270;2023-04-05T02:59:57;17.23;;;8.43;;
55346;SDS011;41218;55.700;38.270;2023-04-05T03:04:57;15.73;;;7.97;;
55346;SDS011;41218;55.700;38.270;2023-04-05T03:10:01;17.73;;;7.80;;
55346;SDS011;41218;55.700;38.270;2023-04-05T03:15:02;16.42;;;8.35;;
55346;SDS011;41218;55.700;38.270;2023-04-05T03:20:03;17.27;;;8.27;;
55346;SDS011;41218;55.700;38.270;2023-04-05T03:25:08;16.05;;;7.57;;
55346;SDS011;41218;55.700;38.270;2023-04-05T03:30:09;19.93;;;8.57;;
55346;SDS011;41218;55.700;38.270;2023-04-05T03:35:10;14.75;;;8.10;;
55346;SDS011;41218;55.700;38.270;2023-04-05T03:40:12;16.15;;;7.78;;
55346;SDS011;41218;55.700;38.270;2023-04-05T03:45:13;17.67;;;8.50;;
55346;SDS011;41218;55.700;38.270;2023-04-05T03:50:14;21.67;;;8.43;;
55346;SDS011;41218;55.700;38.270;2023-04-05T03:55:14;19.53;;;8.57;;
55346;SDS011;41218;55.700;38.270;2023-04-05T04:00:17;22.42;;;8.73;;
55346;SDS011;41218;55.700;38.270;2023-04-05T04:05:19;16.42;;;7.88;;
55346;SDS011;41218;55.700;38.270;2023-04-05T04:10:20;21.10;;;9.52;;
55346;SDS011;41218;55.700;38.270;2023-04-05T04:15:21;18.50;;;8.30;;
55346;SDS011;41218;55.700;38.270;2023-04-05T04:20:21;14.43;;;6.37;;
55346;SDS011;41218;55.700;38.270;2023-04-05T04:25:22;14.57;;;8.37;;
55346;SDS011;41218;55.700;38.270;2023-04-05T04:30:25;13.48;;;7.45;;
55346;SDS011;41218;55.700;38.270;2023-04-05T04:35:26;20.00;;;9.80;;
55346;SDS011;41218;55.700;38.270;2023-04-05T04:45:31;14.40;;;6.95;;
55346;SDS011;41218;55.700;38.270;2023-04-05T04:50:36;18.25;;;8.23;;
55346;SDS011;41218;55.700;38.270;2023-04-05T05:00:41;17.63;;;8.00;;
55346;SDS011;41218;55.700;38.270;2023-04-05T05:05:47;11.43;;;5.53;;
55346;SDS011;41218;55.700;38.270;2023-04-05T05:10:49;15.63;;;8.10;;
55346;SDS011;41218;55.700;38.270;2023-04-05T05:15:52;17.00;;;7.93;;
55346;SDS011;41218;55.700;38.270;2023-04-05T05:20:52;15.70;;;5.50;;
55346;SDS011;41218;55.700;38.270;2023-04-05T05:25:56;17.20;;;8.77;;
55346;SDS011;41218;55.700;38.270;2023-04-05T05:30:58;8.82;;;5.13;;
55346;SDS011;41218;55.700;38.270;2023-04-05T05:35:58;19.37;;;9.40;;
55346;SDS011;41218;55.700;38.270;2023-04-05T05:40:59;12.55;;;6.40;;
55346;SDS011;41218;55.700;38.270;2023-04-05T05:46:00;19.97;;;7.93;;
55346;SDS011;41218;55.700;38.270;2023-04-05T05:51:01;17.70;;;8.50;;
55346;SDS011;41218;55.700;38.270;2023-04-05T05:56:02;17.43;;;7.70;;
55346;SDS011;41218;55.700;38.270;2023-04-05T06:01:02;19.27;;;9.73;;
55346;SDS011;41218;55.700;38.270;2023-04-05T06:06:03;20.30;;;9.23;;
55346;SDS011;41218;55.700;38.270;2023-04-05T06:11:15;17.23;;;8.27;;
55346;SDS011;41218;55.700;38.270;2023-04-05T06:16:16;17.73;;;8.93;;
55346;SDS011;41218;55.700;38.270;2023-04-05T06:21:17;15.45;;;8.13;;
55346;SDS011;41218;55.700;38.270;2023-04-05T06:26:18;12.23;;;6.77;;
55346;SDS011;41218;55.700;38.270;2023-04-05T06:31:25;13.90;;;7.15;;
55346;SDS011;41218;55.700;38.270;2023-04-05T06:36:30;13.98;;;7.47;;
55346;SDS011;41218;55.700;38.270;2023-04-05T06:41:33;16.58;;;8.15;;
55346;SDS011;41218;55.700;38.270;2023-04-05T06:46:34;14.20;;;7.27;;
55346;SDS011;41218;55.700;38.270;2023-04-05T06:51:34;14.03;;;7.37;;
55346;SDS011;41218;55.700;38.270;2023-04-05T06:56:35;14.97;;;7.30;;
55346;SDS011;41218;55.700;38.270;2023-04-05T07:01:35;13.47;;;7.23;;
55346;SDS011;41218;55.700;38.270;2023-04-05T07:06:36;14.10;;;7.80;;
55346;SDS011;41218;55.700;38.270;2023-04-05T07:11:38;13.60;;;6.22;;
55346;SDS011;41218;55.700;38.270;2023-04-05T07:16:39;16.77;;;8.63;;
55346;SDS011;41218;55.700;38.270;2023-04-05T07:21:39;16.00;;;7.40;;
55346;SDS011;41218;55.700;38.270;2023-04-05T07:26:40;9.60;;;5.73;;
55346;SDS011;41218;55.700;38.270;2023-04-05T07:31:41;12.63;;;6.15;;
55346;SDS011;41218;55.700;38.270;2023-04-05T07:36:41;11.87;;;6.47;;
55346;SDS011;41218;55.700;38.270;2023-04-05T07:41:42;13.47;;;5.50;;
55346;SDS011;41218;55.700;38.270;2023-04-05T07:46:42;14.73;;;6.10;;
55346;SDS011;41218;55.700;38.270;2023-04-05T07:51:44;13.18;;;6.20;;
55346;SDS011;41218;55.700;38.270;2023-04-05T07:56:45;13.15;;;5.85;;
55346;SDS011;41218;55.700;38.270;2023-04-05T08:01:47;13.60;;;6.30;;
55346;SDS011;41218;55.700;38.270;2023-04-05T08:06:47;12.10;;;6.53;;
55346;SDS011;41218;55.700;38.270;2023-04-05T08:11:48;12.00;;;6.30;;
55346;SDS011;41218;55.700;38.270;2023-04-05T08:16:48;10.83;;;6.00;;
55346;SDS011;41218;55.700;38.270;2023-04-05T08:21:51;11.63;;;6.30;;
55346;SDS011;41218;55.700;38.270;2023-04-05T08:31:54;12.83;;;5.97;;
55346;SDS011;41218;55.700;38.270;2023-04-05T08:36:57;10.20;;;6.10;;
55346;SDS011;41218;55.700;38.270;2023-04-05T08:42:12;12.40;;;6.38;;
55346;SDS011;41218;55.700;38.270;2023-04-05T08:47:17;12.15;;;6.15;;
55346;SDS011;41218;55.700;38.270;2023-04-05T08:52:19;12.75;;;6.38;;
55346;SDS011;41218;55.700;38.270;2023-04-05T08:57:21;12.17;;;6.17;;
55346;SDS011;41218;55.700;38.270;2023-04-05T09:02:28;9.57;;;4.60;;
55346;SDS011;41218;55.700;38.270;2023-04-05T09:07:29;10.88;;;5.90;;
55346;SDS011;41218;55.700;38.270;2023-04-05T09:12:31;11.38;;;5.88;;
55346;SDS011;41218;55.700;38.270;2023-04-05T09:17:31;10.13;;;4.43;;
55346;SDS011;41218;55.700;38.270;2023-04-05T09:22:43;8.35;;;5.00;;
55346;SDS011;41218;55.700;38.270;2023-04-05T09:32:55;11.32;;;5.00;;
55346;SDS011;41218;55.700;38.270;2023-04-05T09:38:00;6.50;;;4.32;;
55346;SDS011;41218;55.700;38.270;2023-04-05T09:43:01;9.18;;;4.65;;
55346;SDS011;41218;55.700;38.270;2023-04-05T09:48:02;7.43;;;3.80;;
55346;SDS011;41218;55.700;38.270;2023-04-05T09:58:18;7.43;;;3.88;;
55346;SDS011;41218;55.700;38.270;2023-04-05T10:03:20;13.52;;;4.43;;
55346;SDS011;41218;55.700;38.270;2023-04-05T10:08:24;9.32;;;4.45;;
55346;SDS011;41218;55.700;38.270;2023-04-05T10:13:25;7.45;;;4.28;;
55346;SDS011;41218;55.700;38.270;2023-04-05T10:18:30;8.65;;;4.53;;
55346;SDS011;41218;55.700;38.270;2023-04-05T10:23:45;8.23;;;3.75;;
55346;SDS011;41218;55.700;38.270;2023-04-05T10:28:56;9.45;;;4.72;;
55346;SDS011;41218;55.700;38.270;2023-04-05T10:34:05;11.75;;;4.13;;
55346;SDS011;41218;55.700;38.270;2023-04-05T10:39:16;7.38;;;3.33;;
55346;SDS011;41218;55.700;38.270;2023-04-05T10:54:32;5.57;;;3.28;;
55346;SDS011;41218;55.700;38.270;2023-04-05T10:59:38;9.75;;;4.15;;
55346;SDS011;41218;55.700;38.270;2023-04-05T11:04:41;7.40;;;4.22;;
55346;SDS011;41218;55.700;38.270;2023-04-05T11:14:52;8.68;;;4.70;;
55346;SDS011;41218;55.700;38.270;2023-04-05T11:20:24;7.53;;;4.50;;
55346;SDS011;41218;55.700;38.270;2023-04-05T11:25:25;6.80;;;4.33;;
55346;SDS011;41218;55.700;38.270;2023-04-05T11:35:59;7.50;;;4.82;;
55346;SDS011;41218;55.700;38.270;2023-04-05T11:46:17;6.47;;;4.00;;
55346;SDS011;41218;55.700;38.270;2023-04-05T11:51:20;7.13;;;3.88;;
55346;SDS011;41218;55.700;38.270;2023-04-05T11:56:23;5.93;;;4.25;;
55346;SDS011;41218;55.700;38.270;2023-04-05T12:01:23;4.53;;;3.65;;
55346;SDS011;41218;55.700;38.270;2023-04-05T12:06:24;6.32;;;3.40;;
55346;SDS011;41218;55.700;38.270;2023-04-05T12:11:26;7.28;;;4.18;;
55346;SDS011;41218;55.700;38.270;2023-04-05T12:16:28;6.43;;;3.90;;
55346;SDS011;41218;55.700;38.270;2023-04-05T12:21:29;6.50;;;4.20;;
55346;SDS011;41218;55.700;38.270;2023-04-05T12:26:29;6.30;;;4.00;;
55346;SDS011;41218;55.700;38.270;2023-04-05T12:31:42;6.75;;;3.75;;
55346;SDS011;41218;55.700;38.270;2023-04-05T12:36:44;11.65;;;3.95;;
55346;SDS011;41218;55.700;38.270;2023-04-05T12:41:54;8.20;;;3.60;;
55346;SDS011;41218;55.700;38.270;2023-04-05T12:47:00;8.85;;;4.05;;
55346;SDS011;41218;55.700;38.270;2023-04-05T12:52:02;6.43;;;3.90;;
55346;SDS011;41218;55.700;38.270;2023-04-05T12:57:02;7.45;;;3.75;;
55346;SDS011;41218;55.700;38.270;2023-04-05T13:02:11;6.72;;;3.70;;
55346;SDS011;41218;55.700;38.270;2023-04-05T13:07:11;8.53;;;3.87;;
55346;SDS011;41218;55.700;38.270;2023-04-05T13:12:12;7.03;;;2.90;;
55346;SDS011;41218;55.700;38.270;2023-04-05T13:17:13;4.32;;;3.22;;
55346;SDS011;41218;55.700;38.270;2023-04-05T13:22:13;7.67;;;3.27;;
55346;SDS011;41218;55.700;38.270;2023-04-05T13:27:14;4.97;;;2.90;;
55346;SDS011;41218;55.700;38.270;2023-04-05T13:32:14;5.57;;;3.30;;
55346;SDS011;41218;55.700;38.270;2023-04-05T13:37:15;8.43;;;3.50;;
55346;SDS011;41218;55.700;38.270;2023-04-05T13:42:15;9.30;;;3.35;;
55346;SDS011;41218;55.700;38.270;2023-04-05T13:47:16;5.17;;;2.90;;
55346;SDS011;41218;55.700;38.270;2023-04-05T13:52:16;9.02;;;3.22;;
55346;SDS011;41218;55.700;38.270;2023-04-05T13:57:17;5.50;;;3.07;;
55346;SDS011;41218;55.700;38.270;2023-04-05T14:02:17;5.70;;;3.17;;
55346;SDS011;41218;55.700;38.270;2023-04-05T14:07:20;4.82;;;2.88;;
55346;SDS011;41218;55.700;38.270;2023-04-05T14:12:21;5.65;;;2.95;;
55346;SDS011;41218;55.700;38.270;2023-04-05T14:17:21;7.20;;;2.83;;
55346;SDS011;41218;55.700;38.270;2023-04-05T14:22:22;5.72;;;2.95;;
55346;SDS011;41218;55.700;38.270;2023-04-05T14:27:22;5.78;;;3.13;;
55346;SDS011;41218;55.700;38.270;2023-04-05T14:32:25;8.85;;;3.25;;
55346;SDS011;41218;55.700;38.270;2023-04-05T14:37:26;7.43;;;2.80;;
55346;SDS011;41218;55.700;38.270;2023-04-05T14:42:26;7.97;;;3.17;;
55346;SDS011;41218;55.700;38.270;2023-04-05T14:47:27;6.37;;;3.67;;
55346;SDS011;41218;55.700;38.270;2023-04-05T14:52:28;6.37;;;3.20;;
55346;SDS011;41218;55.700;38.270;2023-04-05T14:57:29;5.88;;;3.15;;
55346;SDS011;41218;55.700;38.270;2023-04-05T15:02:29;5.45;;;3.20;;
55346;SDS011;41218;55.700;38.270;2023-04-05T15:07:30;7.18;;;3.10;;
55346;SDS011;41218;55.700;38.270;2023-04-05T15:12:31;6.77;;;3.30;;
55346;SDS011;41218;55.700;38.270;2023-04-05T15:17:31;10.85;;;3.25;;
55346;SDS011;41218;55.700;38.270;2023-04-05T15:22:32;5.57;;;3.38;;
55346;SDS011;41218;55.700;38.270;2023-04-05T15:27:34;5.15;;;3.25;;
55346;SDS011;41218;55.700;38.270;2023-04-05T15:32:35;8.83;;;3.40;;
55346;SDS011;41218;55.700;38.270;2023-04-05T15:37:36;7.43;;;3.10;;
55346;SDS011;41218;55.700;38.270;2023-04-05T15:47:37;7.27;;;3.10;;
55346;SDS011;41218;55.700;38.270;2023-04-05T15:52:38;6.70;;;3.38;;
55346;SDS011;41218;55.700;38.270;2023-04-05T15:57:39;7.73;;;2.93;;
55346;SDS011;41218;55.700;38.270;2023-04-05T16:02:39;6.93;;;3.30;;
55346;SDS011;41218;55.700;38.270;2023-04-05T16:07:40;9.00;;;3.60;;
55346;SDS011;41218;55.700;38.270;2023-04-05T16:12:40;6.60;;;3.20;;
55346;SDS011;41218;55.700;38.270;2023-04-05T16:17:41;9.57;;;3.75;;
55346;SDS011;41218;55.700;38.270;2023-04-05T16:22:42;9.57;;;4.20;;
55346;SDS011;41218;55.700;38.270;2023-04-05T16:27:44;8.90;;;4.10;;
55346;SDS011;41218;55.700;38.270;2023-04-05T16:32:44;6.87;;;3.77;;
55346;SDS011;41218;55.700;38.270;2023-04-05T16:37:45;10.50;;;3.92;;
55346;SDS011;41218;55.700;38.270;2023-04-05T16:42:46;7.07;;;3.97;;
55346;SDS011;41218;55.700;38.270;2023-04-05T16:47:46;7.60;;;4.03;;
55346;SDS011;41218;55.700;38.270;2023-04-05T16:52:47;10.47;;;4.30;;
55346;SDS011;41218;55.700;38.270;2023-04-05T16:57:47;6.40;;;4.20;;
55346;SDS011;41218;55.700;38.270;2023-04-05T17:02:48;8.23;;;4.00;;
55346;SDS011;41218;55.700;38.270;2023-04-05T17:07:49;8.77;;;4.43;;
55346;SDS011;41218;55.700;38.270;2023-04-05T17:12:50;6.60;;;4.00;;
55346;SDS011;41218;55.700;38.270;2023-04-05T17:17:50;8.40;;;4.53;;
55346;SDS011;41218;55.700;38.270;2023-04-05T17:22:51;5.77;;;3.90;;
55346;SDS011;41218;55.700;38.270;2023-04-05T17:27:52;12.40;;;4.45;;
55346;SDS011;41218;55.700;38.270;2023-04-05T17:32:52;7.37;;;4.30;;
55346;SDS011;41218;55.700;38.270;2023-04-05T17:37:53;9.07;;;4.77;;
55346;SDS011;41218;55.700;38.270;2023-04-05T17:42:53;8.33;;;4.40;;
55346;SDS011;41218;55.700;38.270;2023-04-05T17:47:54;9.30;;;5.00;;
55346;SDS011;41218;55.700;38.270;2023-04-05T17:52:55;13.85;;;4.93;;
55346;SDS011;41218;55.700;38.270;2023-04-05T17:57:55;7.50;;;4.20;;
55346;SDS011;41218;55.700;38.270;2023-04-05T18:02:56;12.73;;;4.27;;
55346;SDS011;41218;55.700;38.270;2023-04-05T18:07:56;9.23;;;4.90;;
55346;SDS011;41218;55.700;38.270;2023-04-05T18:12:57;8.63;;;4.73;;
55346;SDS011;41218;55.700;38.270;2023-04-05T18:17:58;9.63;;;5.17;;
55346;SDS011;41218;55.700;38.270;2023-04-05T18:22:58;12.33;;;4.77;;
55346;SDS011;41218;55.700;38.270;2023-04-05T18:27:59;11.65;;;5.22;;
55346;SDS011;41218;55.700;38.270;2023-04-05T18:33:00;10.57;;;5.70;;
55346;SDS011;41218;55.700;38.270;2023-04-05T18:38:00;8.13;;;4.60;;
55346;SDS011;41218;55.700;38.270;2023-04-05T18:43:02;9.05;;;4.95;;
55346;SDS011;41218;55.700;38.270;2023-04-05T18:48:03;11.23;;;5.70;;
55346;SDS011;41218;55.700;38.270;2023-04-05T18:53:03;14.17;;;5.43;;
55346;SDS011;41218;55.700;38.270;2023-04-05T18:58:05;9.50;;;5.20;;
55346;SDS011;41218;55.700;38.270;2023-04-05T19:03:06;12.40;;;5.60;;
55346;SDS011;41218;55.700;38.270;2023-04-05T19:08:07;10.93;;;5.37;;
55346;SDS011;41218;55.700;38.270;2023-04-05T19:13:07;11.23;;;5.70;;
55346;SDS011;41218;55.700;38.270;2023-04-05T19:18:08;10.53;;;5.90;;
55346;SDS011;41218;55.700;38.270;2023-04-05T19:23:10;10.40;;;6.10;;
55346;SDS011;41218;55.700;38.270;2023-04-05T19:28:10;13.00;;;5.50;;
55346;SDS011;41218;55.700;38.270;2023-04-05T19:33:11;10.40;;;6.05;;
55346;SDS011;41218;55.700;38.270;2023-04-05T19:43:13;10.67;;;5.80;;
55346;SDS011;41218;55.700;38.270;2023-04-05T19:48:33;10.90;;;5.20;;
55346;SDS011;41218;55.700;38.270;2023-04-05T19:53:47;11.52;;;5.53;;
55346;SDS011;41218;55.700;38.270;2023-04-05T19:59:32;11.18;;;6.10;;
55346;SDS011;41218;55.700;38.270;2023-04-05T20:04:30;13.18;;;5.40;;
55346;SDS011;41218;55.700;38.270;2023-04-05T20:09:33;12.68;;;6.10;;
55346;SDS011;41218;55.700;38.270;2023-04-05T20:14:40;11.07;;;5.93;;
55346;SDS011;41218;55.700;38.270;2023-04-05T20:19:53;9.23;;;5.70;;
55346;SDS011;41218;55.700;38.270;2023-04-05T20:24:55;11.13;;;6.13;;
55346;SDS011;41218;55.700;38.270;2023-04-05T20:29:56;10.47;;;5.77;;
55346;SDS011;41218;55.700;38.270;2023-04-05T20:34:56;8.63;;;5.40;;
55346;SDS011;41218;55.700;38.270;2023-04-05T20:39:57;11.53;;;6.57;;
55346;SDS011;41218;55.700;38.270;2023-04-05T20:44:57;8.80;;;5.47;;
55346;SDS011;41218;55.700;38.270;2023-04-05T20:49:58;12.53;;;5.80;;
55346;SDS011;41218;55.700;38.270;2023-04-05T20:54:58;10.57;;;6.00;;
55346;SDS011;41218;55.700;38.270;2023-04-05T20:59:59;11.77;;;5.37;;
55346;SDS011;41218;55.700;38.270;2023-04-05T21:05:01;11.80;;;5.90;;
55346;SDS011;41218;55.700;38.270;2023-04-05T21:10:03;12.32;;;6.40;;
55346;SDS011;41218;55.700;38.270;2023-04-05T21:15:03;13.68;;;6.45;;
55346;SDS011;41218;55.700;38.270;2023-04-05T21:20:04;11.07;;;6.15;;
55346;SDS011;41218;55.700;38.270;2023-04-05T21:25:05;11.80;;;6.47;;
55346;SDS011;41218;55.700;38.270;2023-04-05T21:30:06;12.70;;;6.70;;
55346;SDS011;41218;55.700;38.270;2023-04-05T21:35:07;11.23;;;5.93;;
55346;SDS011;41218;55.700;38.270;2023-04-05T21:40:08;11.10;;;5.97;;
55346;SDS011;41218;55.700;38.270;2023-04-05T21:45:09;13.23;;;6.40;;
55346;SDS011;41218;55.700;38.270;2023-04-05T21:50:10;8.50;;;5.40;;
55346;SDS011;41218;55.700;38.270;2023-04-05T21:55:10;10.50;;;5.83;;
55346;SDS011;41218;55.700;38.270;2023-04-05T22:00:11;18.63;;;6.55;;
55346;SDS011;41218;55.700;38.270;2023-04-05T22:05:14;11.10;;;5.78;;
55346;SDS011;41218;55.700;38.270;2023-04-05T22:10:16;12.25;;;5.72;;
55346;SDS011;41218;55.700;38.270;2023-04-05T22:15:16;15.07;;;5.57;;
55346;SDS011;41218;55.700;38.270;2023-04-05T22:20:17;10.60;;;5.40;;
55346;SDS011;41218;55.700;38.270;2023-04-05T22:25:17;13.03;;;6.03;;
55346;SDS011;41218;55.700;38.270;2023-04-05T22:30:18;10.93;;;4.97;;
55346;SDS011;41218;55.700;38.270;2023-04-05T22:35:19;10.70;;;5.80;;
55346;SDS011;41218;55.700;38.270;2023-04-05T22:40:20;9.97;;;5.17;;
55346;SDS011;41218;55.700;38.270;2023-04-05T22:45:26;10.10;;;5.30;;
55346;SDS011;41218;55.700;38.270;2023-04-05T22:50:27;10.80;;;5.72;;
55346;SDS011;41218;55.700;38.270;2023-04-05T22:55:28;9.53;;;4.70;;
55346;SDS011;41218;55.700;38.270;2023-04-05T23:00:28;12.80;;;4.93;;
55346;SDS011;41218;55.700;38.270;2023-04-05T23:05:29;9.90;;;5.57;;
55346;SDS011;41218;55.700;38.270;2023-04-05T23:10:29;12.33;;;5.53;;
55346;SDS011;41218;55.700;38.270;2023-04-05T23:15:30;10.18;;;5.18;;
55346;SDS011;41218;55.700;38.270;2023-04-05T23:20:31;12.23;;;5.77;;
55346;SDS011;41218;55.700;38.270;2023-04-05T23:25:31;8.57;;;3.43;;
55346;SDS011;41218;55.700;38.270;2023-04-05T23:30:32;9.20;;;4.90;;
55346;SDS011;41218;55.700;38.270;2023-04-05T23:35:32;11.83;;;5.30;;
55346;SDS011;41218;55.700;38.270;2023-04-05T23:40:33;10.73;;;5.10;;
55346;SDS011;41218;55.700;38.270;2023-04-05T23:45:33;9.03;;;4.90;;
55346;SDS011;41218;55.700;38.270;2023-04-05T23:50:34;10.43;;;4.97;;
55346;SDS011;41218;55.700;38.270;2023-04-05T23:55:36;10.40;;;5.13;;
